KDXX

Lac Qui Parle County Airport

Madison, Minnesota, USA
METAR KDXX 140455Z AUTO 15007KT 10SM CLR M02/M04 A3032 RMK AO2
Observed Flight Rules
Nov-14 @ 04:55 UTC (12 minutes ago) Visual Flight Rules
Wind Visibility Clouds
150° at 7 knots 10 miles
  • Clear skies
Temperatures Readings
Current -2°C / 28°F
Dewpoint -4°C / 25°F
Humidity 86%
Altimeter 30.32" Hg
Pressure 1027 hPa
Elevation 330
METAR KDXX 140455Z AUTO 15007KT 10SM CLR M02/M04 A3032 RMK AO2
Observed Flight Rules
Nov-14 @ 04:55 UTC
(12 minutes ago)
VFR
Wind Visibility
150° at 7 knots 10 miles
Clouds
  • Clear skies
Temperature Dewpoint
-2°C / 28°F -4°C / 25°F
Humidity Altimeter Pressure
86% 30.32" Hg 1027 hPa